createdAt,value
2022-08-05T00:01:27.635Z,97.01
2022-08-05T00:04:31.948Z,97.07
2022-08-05T00:08:00.351Z,97.00
2022-08-05T00:11:02.742Z,96.60
2022-08-05T00:14:13.079Z,95.98
2022-08-05T00:17:21.142Z,95.54
2022-08-05T00:20:29.109Z,95.55
2022-08-05T00:23:46.470Z,95.11
2022-08-05T00:26:56.741Z,94.85
2022-08-05T00:30:03.702Z,94.68
2022-08-05T00:33:07.464Z,94.41
2022-08-05T00:37:10.880Z,93.94
2022-08-05T00:39:58.340Z,93.29
2022-08-05T00:43:07.444Z,92.52
2022-08-05T00:46:13.002Z,92.66
2022-08-05T00:49:20.128Z,92.66
2022-08-05T00:52:28.754Z,92.46
2022-08-05T00:55:42.102Z,92.26
2022-08-05T00:58:46.535Z,92.24
2022-08-05T01:01:52.429Z,92.18
2022-08-05T01:04:56.115Z,92.21
2022-08-05T01:08:41.839Z,92.12
2022-08-05T01:11:33.442Z,92.43
2022-08-05T01:14:53.256Z,92.56
2022-08-05T01:18:06.254Z,93.17
2022-08-05T01:21:37.993Z,93.40
2022-08-05T01:25:04.488Z,93.60
2022-08-05T01:28:27.570Z,93.74
2022-08-05T01:31:44.668Z,94.07
2022-08-05T01:34:55.752Z,94.49
2022-08-05T01:38:04.056Z,94.97
2022-08-05T01:41:09.204Z,95.40
2022-08-05T01:44:18.246Z,95.67
2022-08-05T01:47:38.633Z,96.17
2022-08-05T01:50:51.069Z,96.27
2022-08-05T01:54:00.270Z,96.45
2022-08-05T01:58:10.214Z,96.89
2022-08-05T02:00:38.055Z,96.79
2022-08-05T02:03:48.728Z,96.99
2022-08-05T02:06:54.255Z,97.26
2022-08-05T02:10:00.508Z,97.47
2022-08-05T02:13:16.540Z,97.42
2022-08-05T02:16:29.495Z,97.89
2022-08-05T02:19:46.947Z,98.03
2022-08-05T02:22:59.775Z,98.09
2022-08-05T02:26:07.520Z,98.46
2022-08-05T02:29:21.694Z,98.55
2022-08-05T02:32:35.434Z,99.00
2022-08-05T02:35:47.350Z,99.21
2022-08-05T02:39:03.084Z,99.64
2022-08-05T02:42:09.458Z,99.67
2022-08-05T02:45:51.484Z,99.90
2022-08-05T02:48:59.458Z,100.00
2022-08-05T02:52:06.623Z,100.00
2022-08-05T02:55:12.424Z,100.00
2022-08-05T02:58:20.524Z,100.00
2022-08-05T03:01:27.465Z,99.95
2022-08-05T03:04:34.748Z,100.00
2022-08-05T03:08:06.648Z,100.00
2022-08-05T03:11:54.694Z,100.00
2022-08-05T03:14:29.632Z,100.00
2022-08-05T03:17:34.451Z,100.00
2022-08-05T03:20:48.862Z,100.00
2022-08-05T03:23:53.883Z,100.00
2022-08-05T03:26:58.135Z,100.00
2022-08-05T03:30:08.620Z,100.00
2022-08-05T03:33:13.065Z,100.00
2022-08-05T03:36:18.169Z,100.00
2022-08-05T03:39:47.183Z,100.00
2022-08-05T03:42:58.147Z,100.00
2022-08-05T03:46:01.937Z,100.00
2022-08-05T03:49:05.624Z,100.00
2022-08-05T03:52:48.516Z,100.00
2022-08-05T03:56:10.186Z,100.00
2022-08-05T03:59:22.470Z,100.00
2022-08-05T04:02:37.381Z,100.00
2022-08-05T04:05:46.065Z,100.00
2022-08-05T04:08:54.571Z,100.00
2022-08-05T04:11:58.373Z,100.00
2022-08-05T04:15:02.226Z,100.00
2022-08-05T04:18:09.841Z,100.00
2022-08-05T04:21:19.901Z,100.00
2022-08-05T04:24:43.971Z,100.00
2022-08-05T04:27:58.064Z,100.00
2022-08-05T04:31:05.140Z,100.00
2022-08-05T04:34:31.830Z,100.00
2022-08-05T04:38:02.880Z,100.00
2022-08-05T04:41:03.443Z,100.00
2022-08-05T04:44:08.926Z,100.00
2022-08-05T04:47:17.004Z,100.00
2022-08-05T04:50:34.458Z,100.00
2022-08-05T04:53:41.444Z,100.00
2022-08-05T04:56:48.066Z,100.00
2022-08-05T04:59:51.712Z,100.00
2022-08-05T05:02:59.126Z,100.00
2022-08-05T05:06:39.187Z,100.00
2022-08-05T05:09:35.216Z,100.00
2022-08-05T05:12:42.712Z,100.00
2022-08-05T05:15:57.577Z,100.00
2022-08-05T05:19:18.986Z,100.00
2022-08-05T05:22:26.317Z,100.00
2022-08-05T05:25:33.028Z,100.00
2022-08-05T05:28:46.055Z,100.00
2022-08-05T05:31:50.287Z,100.00
2022-08-05T05:34:55.064Z,100.00
2022-08-05T05:38:02.201Z,100.00
2022-08-05T05:41:07.645Z,100.00
2022-08-05T05:44:35.921Z,100.00
2022-08-05T05:48:05.706Z,100.00
2022-08-05T05:51:15.097Z,100.00
2022-08-05T05:54:49.863Z,100.00
2022-08-05T05:57:52.699Z,99.09
2022-08-05T06:01:02.489Z,98.66
2022-08-05T06:04:17.289Z,98.46
2022-08-05T06:07:22.432Z,98.18
2022-08-05T06:10:29.369Z,98.24
2022-08-05T06:13:40.706Z,98.15
2022-08-05T06:16:57.015Z,97.93
2022-08-05T06:20:00.971Z,97.58
2022-08-05T06:23:04.614Z,97.73
2022-08-05T06:26:13.879Z,97.58
2022-08-05T06:29:52.062Z,97.38
2022-08-05T06:32:51.284Z,97.32
2022-08-05T06:36:07.538Z,97.16
2022-08-05T06:39:13.992Z,97.14
2022-08-05T06:42:17.968Z,97.23
2022-08-05T06:45:45.055Z,97.46
2022-08-05T06:48:56.757Z,97.74
2022-08-05T06:52:03.083Z,97.67
2022-08-05T06:55:07.677Z,97.77
2022-08-05T06:58:30.229Z,97.88
2022-08-05T07:01:35.198Z,97.24
2022-08-05T07:04:40.210Z,97.29
2022-08-05T07:07:49.010Z,97.39
2022-08-05T07:10:53.902Z,97.62
2022-08-05T07:14:28.981Z,97.66
2022-08-05T07:18:00.618Z,97.74
2022-08-05T07:21:05.534Z,98.22
2022-08-05T07:24:11.208Z,98.23
2022-08-05T07:27:15.387Z,98.36
2022-08-05T07:30:25.373Z,98.33
2022-08-05T07:33:36.439Z,98.28
2022-08-05T07:36:42.420Z,98.70
2022-08-05T07:40:26.480Z,98.14
2022-08-05T07:43:20.092Z,98.50
2022-08-05T07:46:26.694Z,97.87
2022-08-05T07:49:30.483Z,98.14
2022-08-05T07:52:41.690Z,98.03
2022-08-05T07:56:05.795Z,98.47
2022-08-05T07:59:11.762Z,98.44
2022-08-05T08:02:18.825Z,98.57
2022-08-05T08:05:22.530Z,98.77
2022-08-05T08:08:31.542Z,98.98
2022-08-05T08:11:47.609Z,98.07
2022-08-05T08:15:02.191Z,98.49
2022-08-05T08:18:14.000Z,98.74
2022-08-05T08:21:18.482Z,99.07
2022-08-05T08:24:23.661Z,99.08
2022-08-05T08:27:51.291Z,98.79
2022-08-05T08:30:55.377Z,99.02
2022-08-05T08:33:59.038Z,99.38
2022-08-05T08:37:05.251Z,99.76
2022-08-05T08:40:12.763Z,99.75
2022-08-05T08:45:20.352Z,99.93
2022-08-05T08:46:43.012Z,100.00
2022-08-05T08:50:06.142Z,100.00
2022-08-05T08:53:17.979Z,100.00
2022-08-05T08:56:27.208Z,100.00
2022-08-05T08:59:33.628Z,100.00
2022-08-05T09:02:38.523Z,100.00
2022-08-05T09:06:07.582Z,100.00
2022-08-05T09:09:07.148Z,100.00
2022-08-05T09:12:30.231Z,100.00
2022-08-05T09:15:37.065Z,100.00
2022-08-05T09:18:43.778Z,100.00
2022-08-05T09:22:30.917Z,100.00
2022-08-05T09:25:13.999Z,100.00
2022-08-05T09:28:31.654Z,100.00
2022-08-05T09:32:41.865Z,100.00
2022-08-05T09:35:02.834Z,100.00
2022-08-05T09:38:16.422Z,100.00
2022-08-05T09:41:21.560Z,100.00
2022-08-05T09:44:42.622Z,100.00
2022-08-05T09:47:55.362Z,100.00
2022-08-05T09:51:02.787Z,100.00
2022-08-05T09:54:09.421Z,100.00
2022-08-05T09:57:30.461Z,100.00
2022-08-05T10:00:42.063Z,100.00
2022-08-05T10:04:00.236Z,100.00
2022-08-05T10:07:19.536Z,100.00
2022-08-05T10:10:32.450Z,100.00
2022-08-05T10:13:47.883Z,100.00
2022-08-05T10:16:56.346Z,100.00
2022-08-05T10:20:03.677Z,100.00
2022-08-05T10:23:34.339Z,100.00
2022-08-05T10:26:48.955Z,99.91
2022-08-05T10:30:06.314Z,99.69
2022-08-05T10:33:24.219Z,99.81
2022-08-05T10:36:32.678Z,100.00
2022-08-05T10:40:04.134Z,99.60
2022-08-05T10:43:23.850Z,99.96
2022-08-05T10:46:50.696Z,99.75
2022-08-05T10:50:32.455Z,99.64
2022-08-05T10:53:45.889Z,99.61
2022-08-05T10:56:53.142Z,99.48
2022-08-05T11:00:13.435Z,99.39
2022-08-05T11:03:25.144Z,99.10
2022-08-05T11:06:33.188Z,99.49
2022-08-05T11:09:46.893Z,99.20
2022-08-05T11:12:54.926Z,99.17
2022-08-05T11:16:33.952Z,99.36
2022-08-05T11:20:10.643Z,98.51
2022-08-05T11:24:05.020Z,97.73
2022-08-05T11:27:50.785Z,96.93
2022-08-05T11:31:58.293Z,95.71
2022-08-05T11:34:54.444Z,94.93
2022-08-05T11:38:26.641Z,94.51
2022-08-05T11:41:57.988Z,93.38
2022-08-05T11:44:55.551Z,91.76
2022-08-05T11:48:00.001Z,91.43
2022-08-05T11:51:05.527Z,89.46
2022-08-05T11:54:10.036Z,88.67
2022-08-05T11:57:24.926Z,88.26
2022-08-05T12:00:32.370Z,87.87
2022-08-05T12:03:56.079Z,87.49
2022-08-05T12:07:02.113Z,87.57
2022-08-05T12:10:11.567Z,87.73
2022-08-05T12:13:49.111Z,88.81
2022-08-05T12:16:45.386Z,90.11
2022-08-05T12:20:27.201Z,88.97
2022-08-05T12:23:16.272Z,87.25
2022-08-05T12:26:21.814Z,85.85
2022-08-05T12:29:38.608Z,83.97
2022-08-05T12:32:50.422Z,83.50
2022-08-05T12:35:54.892Z,81.83
2022-08-05T12:39:00.439Z,80.44
2022-08-05T12:42:14.282Z,79.58
2022-08-05T12:45:53.370Z,78.32
2022-08-05T12:49:05.910Z,77.40
2022-08-05T12:52:23.856Z,76.12
2022-08-05T12:55:35.275Z,75.50
2022-08-05T12:58:52.127Z,74.48
2022-08-05T13:02:07.583Z,73.42
2022-08-05T13:05:14.573Z,72.84
2022-08-05T13:08:19.829Z,72.30
2022-08-05T13:12:01.895Z,72.91
2022-08-05T13:15:06.281Z,72.22
2022-08-05T13:18:12.509Z,72.51
2022-08-05T13:21:23.851Z,72.34
2022-08-05T13:24:51.256Z,71.46
2022-08-05T13:27:57.478Z,69.84
2022-08-05T13:31:10.985Z,69.81
2022-08-05T13:34:23.604Z,68.20
2022-08-05T13:37:34.874Z,67.34
2022-08-05T13:40:48.037Z,69.25
2022-08-05T13:43:55.477Z,68.65
2022-08-05T13:47:04.971Z,67.50
2022-08-05T13:50:16.840Z,65.80
2022-08-05T13:53:20.736Z,67.09
2022-08-05T13:56:24.464Z,68.42
2022-08-05T13:59:30.657Z,70.29
2022-08-05T14:02:35.348Z,73.62
2022-08-05T14:06:24.406Z,75.62
2022-08-05T14:09:08.627Z,77.15
2022-08-05T14:12:18.065Z,77.62
2022-08-05T14:16:05.681Z,76.04
2022-08-05T14:18:54.380Z,73.79
2022-08-05T14:22:09.258Z,73.98
2022-08-05T14:25:21.943Z,74.10
2022-08-05T14:28:27.296Z,71.88
2022-08-05T14:31:54.519Z,68.36
2022-08-05T14:34:56.864Z,62.19
2022-08-05T14:38:02.642Z,59.87
2022-08-05T14:41:08.251Z,57.26
2022-08-05T14:44:20.312Z,55.85
2022-08-05T14:48:04.204Z,54.66
2022-08-05T14:50:48.965Z,54.24
2022-08-05T14:54:06.590Z,54.20
2022-08-05T14:57:18.419Z,54.55
2022-08-05T15:00:22.446Z,53.58
2022-08-05T15:03:39.232Z,52.43
2022-08-05T15:06:49.062Z,52.64
2022-08-05T15:09:54.896Z,51.46
2022-08-05T15:13:04.278Z,51.40
2022-08-05T15:16:13.112Z,51.84
2022-08-05T15:19:23.377Z,51.75
2022-08-05T15:22:28.102Z,51.92
2022-08-05T15:25:41.070Z,51.60
2022-08-05T15:28:56.769Z,50.92
2022-08-05T15:32:03.092Z,51.37
2022-08-05T15:35:10.723Z,50.33
2022-08-05T15:38:35.635Z,48.18
2022-08-05T15:41:57.570Z,47.93
2022-08-05T15:45:02.783Z,47.55
2022-08-05T15:48:07.139Z,48.18
2022-08-05T15:51:10.839Z,47.73
2022-08-05T15:54:15.234Z,46.35
2022-08-05T15:57:21.316Z,46.36
2022-08-05T16:00:42.898Z,45.92
2022-08-05T16:03:50.883Z,45.20
2022-08-05T16:06:55.752Z,45.48
2022-08-05T16:09:59.618Z,46.22
2022-08-05T16:13:05.497Z,47.00
2022-08-05T16:16:10.620Z,47.45
2022-08-05T16:19:18.986Z,47.89
2022-08-05T16:22:39.412Z,47.50
2022-08-05T16:25:43.530Z,46.71
2022-08-05T16:28:50.031Z,46.74
2022-08-05T16:31:57.818Z,47.12
2022-08-05T16:35:02.564Z,47.74
2022-08-05T16:38:18.623Z,47.77
2022-08-05T16:42:12.783Z,47.28
2022-08-05T16:44:57.118Z,48.39
2022-08-05T16:48:03.007Z,48.81
2022-08-05T16:51:09.185Z,49.56
2022-08-05T16:54:16.241Z,50.35
2022-08-05T16:57:42.936Z,50.78
2022-08-05T17:00:49.859Z,50.96
2022-08-05T17:03:53.634Z,51.41
2022-08-05T17:07:01.285Z,51.34
2022-08-05T17:10:06.248Z,52.15
2022-08-05T17:13:16.967Z,52.75
2022-08-05T17:16:33.005Z,53.57
2022-08-05T17:19:37.718Z,54.21
2022-08-05T17:22:41.614Z,55.00
2022-08-05T17:25:45.579Z,55.61
2022-08-05T17:28:51.036Z,55.82
2022-08-05T17:31:58.206Z,56.34
2022-08-05T17:35:03.211Z,56.73
2022-08-05T17:38:09.184Z,54.86
2022-08-05T17:42:18.392Z,52.92
2022-08-05T17:44:36.676Z,52.56
2022-08-05T17:47:41.799Z,52.53
2022-08-05T17:50:45.536Z,53.36
2022-08-05T17:53:50.918Z,53.65
2022-08-05T17:56:58.795Z,54.67
2022-08-05T18:00:05.188Z,55.63
2022-08-05T18:03:11.193Z,56.65
2022-08-05T18:06:15.540Z,57.71
2022-08-05T18:09:20.007Z,58.20
2022-08-05T18:12:24.711Z,58.68
2022-08-05T18:15:38.516Z,59.29
2022-08-05T18:18:48.037Z,59.82
2022-08-05T18:22:08.547Z,59.61
2022-08-05T18:25:13.675Z,59.98
2022-08-05T18:28:21.808Z,60.35
2022-08-05T18:31:33.835Z,60.62
2022-08-05T18:34:42.869Z,60.88
2022-08-05T18:37:46.748Z,61.55
2022-08-05T18:41:53.784Z,61.60
2022-08-05T18:44:15.365Z,61.85
2022-08-05T18:47:38.776Z,61.96
2022-08-05T18:52:02.739Z,62.03
2022-08-05T18:54:26.311Z,62.47
2022-08-05T18:57:43.184Z,62.61
2022-08-05T19:00:53.993Z,62.92
2022-08-05T19:03:57.778Z,63.42
2022-08-05T19:07:02.919Z,63.56
2022-08-05T19:10:11.800Z,63.86
2022-08-05T19:13:16.149Z,64.12
2022-08-05T19:16:25.481Z,64.27
2022-08-05T19:19:33.807Z,64.64
2022-08-05T19:22:39.856Z,64.89
2022-08-05T19:25:43.801Z,65.21
2022-08-05T19:28:48.147Z,65.49
2022-08-05T19:31:52.108Z,65.45
2022-08-05T19:34:55.964Z,65.77
2022-08-05T19:38:06.726Z,66.03
2022-08-05T19:41:12.348Z,66.01
2022-08-05T19:44:16.578Z,66.58
2022-08-05T19:47:22.170Z,66.89
2022-08-05T19:50:27.383Z,66.84
2022-08-05T19:54:04.022Z,67.22
2022-08-05T19:56:56.860Z,67.87
2022-08-05T20:00:04.548Z,68.21
2022-08-05T20:03:11.107Z,68.65
2022-08-05T20:06:16.025Z,69.49
2022-08-05T20:09:55.180Z,69.52
2022-08-05T20:12:58.221Z,69.50
2022-08-05T20:16:01.920Z,69.70
2022-08-05T20:19:07.969Z,70.46
2022-08-05T20:22:11.705Z,71.36
2022-08-05T20:25:16.823Z,71.54
2022-08-05T20:28:20.515Z,71.50
2022-08-05T20:31:42.233Z,71.83
2022-08-05T20:34:52.084Z,71.06
2022-08-05T20:38:06.014Z,71.00
2022-08-05T20:41:12.666Z,71.62
2022-08-05T20:44:30.203Z,71.99
2022-08-05T20:47:34.644Z,72.97
2022-08-05T20:50:45.432Z,73.02
2022-08-05T20:53:55.238Z,73.44
2022-08-05T20:57:03.517Z,73.73
2022-08-05T21:00:20.979Z,73.89
2022-08-05T21:03:34.669Z,74.59
2022-08-05T21:06:45.751Z,75.39
2022-08-05T21:09:53.535Z,75.31
2022-08-05T21:13:11.077Z,76.08
2022-08-05T21:16:18.491Z,76.58
2022-08-05T21:19:23.514Z,76.46
2022-08-05T21:22:27.487Z,76.94
2022-08-05T21:25:34.033Z,76.86
2022-08-05T21:28:40.918Z,77.40
2022-08-05T21:31:51.991Z,77.69
2022-08-05T21:35:08.887Z,77.87
2022-08-05T21:38:20.253Z,78.37
2022-08-05T21:41:24.013Z,78.43
2022-08-05T21:44:29.122Z,78.99
2022-08-05T21:47:56.802Z,79.08
2022-08-05T21:50:57.338Z,79.13
2022-08-05T21:54:03.833Z,79.26
2022-08-05T21:57:30.864Z,79.66
2022-08-05T22:00:33.276Z,79.60
2022-08-05T22:03:49.007Z,79.55
2022-08-05T22:06:57.244Z,79.72
2022-08-05T22:10:01.202Z,80.20
2022-08-05T22:13:09.172Z,80.15
2022-08-05T22:16:41.640Z,80.41
2022-08-05T22:20:01.964Z,80.67
2022-08-05T22:24:00.983Z,81.25
2022-08-05T22:27:16.515Z,81.41
2022-08-05T22:30:21.034Z,81.56
2022-08-05T22:33:56.630Z,81.62
2022-08-05T22:36:51.539Z,82.11
2022-08-05T22:39:55.690Z,82.05
2022-08-05T22:43:00.229Z,82.44
2022-08-05T22:46:12.137Z,82.68
2022-08-05T22:50:21.666Z,82.55
2022-08-05T22:52:53.361Z,83.07
2022-08-05T22:55:59.346Z,83.03
2022-08-05T22:59:42.496Z,82.91
2022-08-05T23:02:29.202Z,83.73
2022-08-05T23:05:36.180Z,84.25
2022-08-05T23:08:39.983Z,84.39
2022-08-05T23:11:46.695Z,84.74
2022-08-05T23:14:53.987Z,85.16
2022-08-05T23:18:00.434Z,85.11
2022-08-05T23:21:10.088Z,85.37
2022-08-05T23:24:14.057Z,85.07
2022-08-05T23:27:20.126Z,85.39
2022-08-05T23:30:29.057Z,85.66
2022-08-05T23:34:05.218Z,85.96
2022-08-05T23:36:59.903Z,85.95
2022-08-05T23:40:07.548Z,86.19
2022-08-05T23:43:25.173Z,86.38
2022-08-05T23:46:37.434Z,86.22
2022-08-05T23:49:43.238Z,86.26
2022-08-05T23:52:51.712Z,86.24
2022-08-05T23:55:57.619Z,86.20
2022-08-05T23:59:03.102Z,86.10
